Time;durP1;ratioP1;P1;durP2;ratioP2;P2;SDS_P1;SDS_P2;PMS_P1;PMS_P2;Temp;Humidity;BMP_temperature;BMP_pressure;BME280_temperature;BME280_humidity;BME280_pressure;Samples;Min_cycle;Max_cycle;Signal;HPM_P1;HPM_P2
2022/12/05 14:42:40;;;;;;;11.67;6.00;;;6.00;99.90;;;;;;4910736;23;20600;-70
2022/12/05 14:45:30;;;;;;;10.20;5.47;;;5.90;99.90;;;;;;4897711;29;20320;-70
2022/12/05 14:47:58;;;;;;;10.67;5.37;;;6.00;99.90;;;;;;4892821;29;20568;-70
2022/12/05 14:50:44;;;;;;;9.40;5.00;;;6.10;99.90;;;;;;4898020;29;20234;-70
2022/12/05 14:53:19;;;;;;;11.70;5.10;;;6.10;99.90;;;;;;4898450;29;20214;-70
2022/12/05 14:55:47;;;;;;;9.60;4.73;;;6.10;99.90;;;;;;4898334;29;20304;-70
2022/12/05 14:58:18;;;;;;;12.60;5.23;;;6.20;99.90;;;;;;4898414;29;20212;-69
2022/12/05 15:00:47;;;;;;;7.73;4.73;;;6.20;99.90;;;;;;4884279;29;20245;-70
2022/12/05 15:03:22;;;;;;;8.20;4.97;;;6.20;99.90;;;;;;4879668;29;20317;-71
2022/12/05 15:05:49;;;;;;;9.23;4.80;;;6.10;99.90;;;;;;4879674;29;20241;-70
2022/12/05 15:08:16;;;;;;;9.60;5.00;;;6.20;99.90;;;;;;4879601;29;20211;-70
2022/12/05 15:10:44;;;;;;;9.83;4.87;;;6.20;99.90;;;;;;4878560;29;20597;-70
2022/12/05 15:13:14;;;;;;;13.73;5.17;;;6.10;99.90;;;;;;4879136;29;20265;-70
2022/12/05 15:15:45;;;;;;;11.10;5.57;;;6.20;99.90;;;;;;4878966;29;20207;-70
2022/12/05 15:18:18;;;;;;;11.43;5.23;;;6.30;99.90;;;;;;4879406;29;20207;-70
2022/12/05 15:20:50;;;;;;;8.67;4.93;;;6.10;99.90;;;;;;4879614;29;20257;-70
2022/12/05 15:23:39;;;;;;;11.03;5.40;;;6.10;99.90;;;;;;4879405;29;20211;-71
2022/12/05 15:26:11;;;;;;;8.73;4.93;;;6.20;99.90;;;;;;4879206;29;20603;-69
2022/12/05 15:28:38;;;;;;;10.03;5.30;;;6.30;99.90;;;;;;4879335;29;20219;-71
2022/12/05 15:31:11;;;;;;;12.97;5.67;;;6.20;99.90;;;;;;4879503;29;20310;-70
2022/12/05 15:33:50;;;;;;;11.43;5.33;;;6.30;99.90;;;;;;4879163;29;20207;-70
2022/12/05 15:36:27;;;;;;;10.40;5.63;;;6.20;99.90;;;;;;4885231;29;20195;-70
2022/12/05 15:38:54;;;;;;;12.53;5.73;;;6.20;99.90;;;;;;4890335;29;20215;-72
2022/12/05 15:41:21;;;;;;;11.03;5.47;;;6.20;99.90;;;;;;4878911;29;20219;-70
2022/12/05 15:43:56;;;;;;;11.13;6.00;;;6.20;99.90;;;;;;4878869;29;20789;-70
2022/12/05 15:46:26;;;;;;;10.77;5.43;;;6.20;99.90;;;;;;4878972;29;20666;-70
2022/12/05 15:48:54;;;;;;;14.37;5.77;;;6.30;99.90;;;;;;4878730;29;20219;-70
2022/12/05 15:51:25;;;;;;;12.23;5.53;;;6.20;99.90;;;;;;4879152;29;20592;-70
2022/12/05 15:53:55;;;;;;;13.60;6.13;;;6.20;99.90;;;;;;4879190;29;20213;-70
2022/12/05 15:56:27;;;;;;;13.53;6.10;;;6.10;99.90;;;;;;4879266;29;20211;-70
2022/12/05 15:58:58;;;;;;;14.37;6.20;;;6.10;99.90;;;;;;4878768;29;20211;-70
2022/12/05 16:01:27;;;;;;;16.53;6.27;;;6.20;99.90;;;;;;4879006;29;20217;-70
2022/12/05 16:03:58;;;;;;;14.67;6.70;;;6.30;99.90;;;;;;4879166;29;20275;-70
2022/12/05 16:06:29;;;;;;;17.20;6.23;;;6.30;99.90;;;;;;4879184;29;20222;-70
2022/12/05 16:08:57;;;;;;;14.57;6.33;;;6.20;99.90;;;;;;4878971;29;20212;-70
2022/12/05 16:11:24;;;;;;;13.77;6.23;;;6.10;99.90;;;;;;4878797;29;20218;-70
2022/12/05 16:13:57;;;;;;;18.70;6.80;;;6.10;99.90;;;;;;4878494;29;20222;-70
2022/12/05 16:16:27;;;;;;;15.63;5.73;;;6.00;99.90;;;;;;4878813;29;20211;-70
2022/12/05 16:18:56;;;;;;;16.23;6.90;;;6.00;99.90;;;;;;4878278;29;20684;-70
2022/12/05 16:21:35;;;;;;;15.33;6.97;;;6.00;99.90;;;;;;4880702;29;20207;-70
2022/12/05 16:24:05;;;;;;;15.27;6.77;;;6.10;99.90;;;;;;4881921;29;20215;-70
2022/12/05 16:26:37;;;;;;;15.33;6.37;;;6.10;99.90;;;;;;4882275;29;20217;-70
2022/12/05 16:29:04;;;;;;;14.50;7.40;;;6.00;99.90;;;;;;4882379;29;20227;-70
2022/12/05 16:31:33;;;;;;;15.60;7.37;;;6.00;99.90;;;;;;4882243;29;20221;-70
2022/12/05 16:34:03;;;;;;;13.67;6.33;;;6.00;99.90;;;;;;4882285;29;20211;-70
2022/12/05 16:36:31;;;;;;;14.67;7.33;;;6.00;99.90;;;;;;4882047;29;20299;-70
2022/12/05 16:39:02;;;;;;;12.93;6.50;;;6.00;99.90;;;;;;4881728;29;20211;-70
2022/12/05 16:41:39;;;;;;;17.40;8.13;;;6.00;99.90;;;;;;4881988;29;20215;-70
2022/12/05 16:44:47;;;;;;;23.50;7.43;;;6.10;99.90;;;;;;4881938;29;20219;-72
2022/12/05 16:47:23;;;;;;;14.83;6.73;;;6.10;99.90;;;;;;4881881;29;20218;-70
2022/12/05 16:49:51;;;;;;;18.03;6.40;;;6.10;99.90;;;;;;4881795;29;20769;-71
2022/12/05 16:52:18;;;;;;;14.30;6.67;;;6.10;99.90;;;;;;4881844;29;20306;-71
2022/12/05 16:54:47;;;;;;;14.97;7.03;;;6.20;99.90;;;;;;4881674;29;20215;-71
2022/12/05 16:57:15;;;;;;;14.90;6.90;;;6.20;99.90;;;;;;4881707;29;20207;-71
2022/12/05 16:59:44;;;;;;;17.83;8.23;;;6.20;99.90;;;;;;4881757;29;20249;-71
2022/12/05 17:02:13;;;;;;;16.87;6.93;;;6.20;99.90;;;;;;4882683;29;20245;-71
2022/12/05 17:04:41;;;;;;;12.67;7.03;;;6.20;99.90;;;;;;4881757;29;20248;-71
2022/12/05 17:07:09;;;;;;;17.67;8.03;;;6.20;99.90;;;;;;4881045;29;20571;-71
2022/12/05 17:09:36;;;;;;;13.60;6.97;;;6.30;99.90;;;;;;4881033;29;20326;-71
2022/12/05 17:12:07;;;;;;;18.17;7.80;;;6.30;99.90;;;;;;4881053;29;20221;-72
2022/12/05 17:14:34;;;;;;;17.90;7.40;;;6.30;99.90;;;;;;4882018;29;20221;-72
2022/12/05 17:17:00;;;;;;;17.47;9.03;;;6.30;99.90;;;;;;4884945;29;20202;-71
2022/12/05 17:19:27;;;;;;;23.57;8.37;;;6.40;99.90;;;;;;4900125;29;20230;-71
2022/12/05 17:21:56;;;;;;;18.00;8.03;;;6.40;99.90;;;;;;4899958;29;20221;-71
2022/12/05 17:24:27;;;;;;;20.60;8.33;;;6.40;99.90;;;;;;4898906;29;20237;-71
2022/12/05 17:26:53;;;;;;;17.97;8.67;;;6.40;99.90;;;;;;4900167;29;20282;-71
2022/12/05 17:29:20;;;;;;;18.43;8.40;;;6.40;99.90;;;;;;4900535;29;20234;-71
2022/12/05 17:31:48;;;;;;;21.50;9.77;;;6.40;99.90;;;;;;4899782;29;20297;-72
2022/12/05 17:34:16;;;;;;;19.93;9.03;;;6.40;99.90;;;;;;4900152;29;20214;-71
2022/12/05 17:36:44;;;;;;;19.57;8.70;;;6.40;99.90;;;;;;4899923;29;20210;-72
2022/12/05 17:39:12;;;;;;;18.73;8.23;;;6.40;99.90;;;;;;4899862;29;20270;-71
2022/12/05 17:41:39;;;;;;;18.47;8.67;;;6.40;99.90;;;;;;4899966;29;20234;-71
2022/12/05 17:44:06;;;;;;;17.07;8.23;;;6.40;99.90;;;;;;4899462;29;20759;-71
2022/12/05 17:46:33;;;;;;;14.37;7.23;;;6.30;99.90;;;;;;4881859;29;20211;-71
2022/12/05 17:49:00;;;;;;;18.70;9.13;;;6.40;99.90;;;;;;4879017;29;20645;-70
2022/12/05 17:51:27;;;;;;;21.10;8.37;;;6.50;99.90;;;;;;4879982;29;20225;-70
2022/12/05 17:53:54;;;;;;;18.73;8.47;;;6.50;99.90;;;;;;4879326;29;20211;-71
2022/12/05 17:56:22;;;;;;;19.23;8.67;;;6.50;99.90;;;;;;4879734;29;20215;-70
2022/12/05 17:58:49;;;;;;;16.23;8.40;;;6.50;99.90;;;;;;4878963;29;20689;-73
2022/12/05 18:01:18;;;;;;;19.20;8.57;;;6.60;99.90;;;;;;4879209;29;20235;-70
2022/12/05 18:03:46;;;;;;;18.97;8.63;;;6.50;99.90;;;;;;4879207;29;20685;-72
2022/12/05 18:06:13;;;;;;;19.73;9.13;;;6.60;99.90;;;;;;4879519;29;20223;-70
2022/12/05 18:08:42;;;;;;;22.30;10.13;;;6.60;99.90;;;;;;4896112;29;20217;-71
2022/12/05 18:11:09;;;;;;;21.13;9.13;;;6.60;99.90;;;;;;4897527;29;20211;-70
2022/12/05 18:13:38;;;;;;;22.70;10.07;;;6.50;99.90;;;;;;4897722;29;20301;-74
2022/12/05 18:16:05;;;;;;;21.67;10.00;;;6.50;99.90;;;;;;4896400;29;20289;-75
2022/12/05 18:18:32;;;;;;;20.00;9.50;;;6.50;99.90;;;;;;4897867;29;20220;-74
2022/12/05 18:21:06;;;;;;;21.80;9.60;;;6.50;99.90;;;;;;4897332;29;20240;-76
2022/12/05 18:23:35;;;;;;;21.03;9.90;;;6.60;99.90;;;;;;4897431;29;20231;-74
2022/12/05 18:26:03;;;;;;;21.17;10.27;;;6.60;99.90;;;;;;4886137;29;20211;-74
2022/12/05 18:28:30;;;;;;;21.33;9.37;;;6.60;99.90;;;;;;4879088;29;20221;-72
2022/12/05 18:31:09;;;;;;;21.53;9.23;;;6.60;99.90;;;;;;4878533;29;20242;-74
2022/12/05 18:33:36;;;;;;;19.93;8.90;;;6.70;99.90;;;;;;4879001;29;20222;-74
2022/12/05 18:36:08;;;;;;;18.53;8.83;;;6.60;99.90;;;;;;4880210;29;20570;-71
2022/12/05 18:38:35;;;;;;;17.23;8.73;;;6.60;99.90;;;;;;4879567;29;20639;-72
2022/12/05 18:41:03;;;;;;;18.27;9.53;;;6.50;99.90;;;;;;4879475;29;20242;-71
2022/12/05 18:43:31;;;;;;;20.87;8.70;;;6.60;99.90;;;;;;4879298;29;20214;-72
2022/12/05 18:45:59;;;;;;;21.33;9.70;;;6.60;99.90;;;;;;4879676;29;20253;-71
2022/12/05 18:48:29;;;;;;;19.07;9.20;;;6.50;99.90;;;;;;4880133;29;20227;-72
2022/12/05 18:51:05;;;;;;;16.53;8.23;;;6.40;99.90;;;;;;4879584;29;20350;-71
2022/12/05 18:53:32;;;;;;;23.83;9.83;;;6.50;99.90;;;;;;4879964;29;20214;-72
2022/12/05 18:56:03;;;;;;;21.87;10.87;;;6.60;99.90;;;;;;4879797;29;20207;-72
2022/12/05 18:58:30;;;;;;;16.90;8.40;;;6.70;99.90;;;;;;4879520;29;20211;-72
2022/12/05 19:01:04;;;;;;;19.80;9.73;;;6.70;99.90;;;;;;4879501;29;20258;-71
2022/12/05 19:03:33;;;;;;;22.30;9.93;;;6.60;99.90;;;;;;4879740;29;20214;-72
2022/12/05 19:06:00;;;;;;;21.00;9.27;;;6.60;99.90;;;;;;4879416;29;20570;-71
2022/12/05 19:08:27;;;;;;;22.40;10.33;;;6.70;99.90;;;;;;4879178;29;20591;-72
2022/12/05 19:10:54;;;;;;;18.37;9.60;;;6.60;99.90;;;;;;4879006;29;20323;-72
2022/12/05 19:13:20;;;;;;;27.67;10.23;;;6.40;99.90;;;;;;4879619;29;20241;-71
2022/12/05 19:15:47;;;;;;;19.93;9.37;;;6.40;99.90;;;;;;4879434;29;20207;-72
2022/12/05 19:18:14;;;;;;;22.07;9.63;;;6.50;99.90;;;;;;4879050;29;20552;-71
2022/12/05 19:20:49;;;;;;;23.10;10.77;;;6.40;99.90;;;;;;4878987;29;20243;-71
2022/12/05 19:23:16;;;;;;;28.67;11.40;;;6.40;99.90;;;;;;4879327;29;20214;-71
2022/12/05 19:25:43;;;;;;;23.57;10.67;;;6.50;99.90;;;;;;4883864;29;20206;-71
2022/12/05 19:28:09;;;;;;;25.47;10.53;;;6.50;99.90;;;;;;4898021;29;20245;-71
2022/12/05 19:30:36;;;;;;;23.53;9.67;;;6.40;99.90;;;;;;4897145;29;20235;-71
2022/12/05 19:33:03;;;;;;;22.93;9.70;;;6.50;99.90;;;;;;4897419;29;20210;-71
2022/12/05 19:35:30;;;;;;;18.63;9.33;;;6.40;99.90;;;;;;4898150;29;20217;-71
2022/12/05 19:37:58;;;;;;;25.30;10.27;;;6.30;99.90;;;;;;4897499;29;20583;-71
2022/12/05 19:40:25;;;;;;;25.33;9.97;;;6.30;99.90;;;;;;4897931;29;20238;-71
2022/12/05 19:42:52;;;;;;;23.20;10.13;;;6.20;99.90;;;;;;4897582;29;20228;-71
2022/12/05 19:45:18;;;;;;;24.10;10.73;;;6.10;99.90;;;;;;4897933;29;20214;-71
2022/12/05 19:47:45;;;;;;;22.80;10.70;;;6.00;99.90;;;;;;4897874;29;20210;-71
2022/12/05 19:50:12;;;;;;;23.33;10.83;;;6.00;99.90;;;;;;4898138;29;20226;-71
2022/12/05 19:52:39;;;;;;;23.33;10.60;;;6.00;99.90;;;;;;4897565;29;20214;-71
2022/12/05 19:55:08;;;;;;;25.30;10.80;;;6.00;99.90;;;;;;4898203;29;20219;-71
2022/12/05 19:57:36;;;;;;;25.10;10.50;;;6.00;99.90;;;;;;4901958;29;20214;-72
2022/12/05 20:00:04;;;;;;;21.00;10.40;;;6.10;99.90;;;;;;4901543;29;20770;-71
2022/12/05 20:02:31;;;;;;;26.47;11.20;;;6.10;99.90;;;;;;4901639;29;20214;-69
2022/12/05 20:04:58;;;;;;;21.83;9.67;;;6.10;99.90;;;;;;4901641;29;20232;-72
2022/12/05 20:07:25;;;;;;;20.60;11.20;;;6.10;99.90;;;;;;4901493;29;20212;-71
2022/12/05 20:09:52;;;;;;;23.63;10.70;;;6.20;99.90;;;;;;4901436;29;20230;-71
2022/12/05 20:12:20;;;;;;;26.07;10.60;;;6.30;99.90;;;;;;4901517;29;20214;-71
2022/12/05 20:14:47;;;;;;;24.97;10.37;;;6.30;99.90;;;;;;4901385;29;20198;-71
2022/12/05 20:17:15;;;;;;;22.13;10.73;;;6.40;99.90;;;;;;4901200;29;20206;-72
2022/12/05 20:19:42;;;;;;;23.83;10.90;;;6.50;99.90;;;;;;4901507;29;20234;-71
2022/12/05 20:22:09;;;;;;;31.17;12.43;;;6.50;99.90;;;;;;4901921;29;20238;-72
2022/12/05 20:24:36;;;;;;;26.93;11.93;;;6.60;99.90;;;;;;4901525;29;20211;-72
2022/12/05 20:27:05;;;;;;;23.90;11.23;;;6.70;99.90;;;;;;4901332;29;20217;-71
2022/12/05 20:29:33;;;;;;;24.40;10.77;;;6.80;99.90;;;;;;4900677;29;20257;-72
2022/12/05 20:32:00;;;;;;;24.03;11.47;;;6.80;99.90;;;;;;4900728;29;20215;-72
2022/12/05 20:34:26;;;;;;;22.50;10.67;;;6.80;99.90;;;;;;4901295;29;20211;-72
2022/12/05 20:36:53;;;;;;;25.03;11.17;;;6.80;99.90;;;;;;4900984;29;20211;-71
2022/12/05 20:39:20;;;;;;;20.60;10.17;;;6.80;99.90;;;;;;4901236;29;20623;-72
2022/12/05 20:41:49;;;;;;;21.67;9.10;;;6.90;99.90;;;;;;4900667;29;20273;-72
2022/12/05 20:44:16;;;;;;;19.47;9.37;;;7.00;99.90;;;;;;4900471;29;20765;-72
2022/12/05 20:46:44;;;;;;;15.43;7.57;;;7.00;99.90;;;;;;4900407;29;20242;-72
2022/12/05 20:49:12;;;;;;;17.23;8.37;;;7.00;99.90;;;;;;4900500;29;20233;-72
2022/12/05 20:51:41;;;;;;;17.87;8.37;;;7.00;99.90;;;;;;4900830;29;20206;-72
2022/12/05 20:54:08;;;;;;;15.97;7.17;;;7.00;99.90;;;;;;4900750;29;20298;-72
2022/12/05 20:56:35;;;;;;;16.43;8.13;;;7.10;99.90;;;;;;4900529;29;20207;-72
2022/12/05 20:59:04;;;;;;;19.13;7.83;;;7.10;99.90;;;;;;4899933;29;20237;-72
2022/12/05 21:01:34;;;;;;;16.23;7.43;;;7.10;99.90;;;;;;4900138;29;20328;-71
2022/12/05 21:04:04;;;;;;;13.37;7.80;;;7.10;99.90;;;;;;4900562;29;20206;-72
2022/12/05 21:06:33;;;;;;;19.97;8.70;;;7.20;99.90;;;;;;4899781;29;20214;-71
2022/12/05 21:09:01;;;;;;;17.97;9.07;;;7.20;99.90;;;;;;4899713;29;20226;-72
2022/12/05 21:11:28;;;;;;;16.97;8.53;;;7.30;99.90;;;;;;4900414;29;20644;-72
2022/12/05 21:13:56;;;;;;;14.67;7.93;;;7.40;99.90;;;;;;4900353;29;20210;-72
2022/12/05 21:16:23;;;;;;;13.97;7.70;;;7.20;99.90;;;;;;4900417;29;20238;-72
2022/12/05 21:18:51;;;;;;;18.97;8.67;;;7.20;99.90;;;;;;4899787;29;20210;-71
2022/12/05 21:21:21;;;;;;;20.97;8.80;;;7.10;99.90;;;;;;4900052;29;20238;-71
2022/12/05 21:23:53;;;;;;;21.13;8.83;;;7.10;99.90;;;;;;4900100;29;20211;-71
2022/12/05 21:26:20;;;;;;;16.73;8.13;;;7.20;99.90;;;;;;4900142;29;20218;-71
2022/12/05 21:28:47;;;;;;;15.67;7.60;;;7.40;99.90;;;;;;4900087;29;20309;-71
2022/12/05 21:31:16;;;;;;;14.93;6.47;;;7.50;99.90;;;;;;4900254;29;20218;-70
2022/12/05 21:33:47;;;;;;;14.33;7.40;;;7.40;99.90;;;;;;4899992;29;20756;-71
2022/12/05 21:36:14;;;;;;;14.37;6.90;;;7.40;99.90;;;;;;4900127;29;20216;-70
2022/12/05 21:38:42;;;;;;;13.63;7.37;;;7.40;99.90;;;;;;4899951;29;20674;-69
2022/12/05 21:41:09;;;;;;;14.43;6.73;;;7.30;99.90;;;;;;4900064;29;20241;-70
2022/12/05 21:43:36;;;;;;;14.07;6.57;;;7.40;99.90;;;;;;4899421;29;20741;-71
2022/12/05 21:46:04;;;;;;;15.20;8.10;;;7.30;99.90;;;;;;4900065;29;20537;-70
2022/12/05 21:48:32;;;;;;;17.87;7.17;;;7.30;99.90;;;;;;4899573;29;20220;-71
2022/12/05 21:50:59;;;;;;;14.90;6.83;;;7.40;99.90;;;;;;4899788;29;20658;-72
2022/12/05 21:53:26;;;;;;;17.40;7.53;;;7.50;99.90;;;;;;4899567;29;20214;-71
2022/12/05 21:56:00;;;;;;;19.63;7.90;;;7.40;99.90;;;;;;4899367;29;20577;-72
2022/12/05 21:58:27;;;;;;;18.20;7.40;;;7.30;99.90;;;;;;4899501;29;20236;-71
2022/12/05 22:00:54;;;;;;;13.83;6.77;;;7.30;99.90;;;;;;4899421;29;20662;-71
2022/12/05 22:03:21;;;;;;;14.40;7.03;;;7.20;99.90;;;;;;4899689;29;20215;-70
2022/12/05 22:05:48;;;;;;;15.90;7.83;;;7.20;99.90;;;;;;4899512;29;20217;-71
2022/12/05 22:08:15;;;;;;;17.00;7.80;;;7.30;99.90;;;;;;4899701;29;20217;-72
2022/12/05 22:10:42;;;;;;;12.90;6.87;;;7.30;99.90;;;;;;4899537;29;20227;-70
2022/12/05 22:13:10;;;;;;;13.37;7.13;;;7.30;99.90;;;;;;4899670;29;20210;-72
2022/12/05 22:15:37;;;;;;;12.37;6.37;;;7.20;99.90;;;;;;4899612;29;20212;-70
2022/12/05 22:18:04;;;;;;;11.97;6.60;;;7.30;99.90;;;;;;4898661;29;20230;-70
2022/12/05 22:20:31;;;;;;;10.00;5.20;;;7.30;99.90;;;;;;4898948;29;20230;-70
2022/12/05 22:22:57;;;;;;;9.53;5.00;;;7.40;99.90;;;;;;4899215;29;20701;-70
2022/12/05 22:25:24;;;;;;;11.57;5.07;;;7.60;99.90;;;;;;4899299;29;20212;-72
2022/12/05 22:27:51;;;;;;;11.23;5.37;;;7.50;99.90;;;;;;4899233;29;20232;-71
2022/12/05 22:30:19;;;;;;;9.43;5.17;;;7.60;99.90;;;;;;4899162;29;20241;-72
2022/12/05 22:32:46;;;;;;;12.87;5.40;;;7.60;99.90;;;;;;4898904;29;20221;-71
2022/12/05 22:35:13;;;;;;;8.93;4.77;;;7.60;99.90;;;;;;4903149;29;20217;-72
2022/12/05 22:37:40;;;;;;;10.60;4.40;;;7.50;99.90;;;;;;4906294;29;20217;-71
2022/12/05 22:40:07;;;;;;;8.83;4.53;;;7.50;99.90;;;;;;4900756;29;20227;-69
2022/12/05 22:42:34;;;;;;;11.87;5.43;;;7.40;99.90;;;;;;4899016;29;20242;-69
2022/12/05 22:45:01;;;;;;;15.10;5.43;;;7.40;99.90;;;;;;4899101;29;20210;-70
2022/12/05 22:47:29;;;;;;;9.17;4.27;;;7.40;99.90;;;;;;4898836;29;20217;-69
2022/12/05 22:49:56;;;;;;;7.47;4.30;;;7.40;99.90;;;;;;4898846;29;20268;-70
2022/12/05 22:52:23;;;;;;;8.23;4.20;;;7.30;99.90;;;;;;4898657;29;20245;-72
2022/12/05 22:54:49;;;;;;;8.33;4.10;;;7.30;99.90;;;;;;4898431;29;20215;-72
2022/12/05 22:57:16;;;;;;;9.17;3.93;;;7.20;99.90;;;;;;4898684;29;20317;-72
